Pine Bluff, Arkansas
Current Conditions -  °F | °C
As of 10:53 PM on Wednesday 26 Nov 2014 (Local Time) from KPBF Reporting Station
Clear Clear  
Wind Chill: 42°   Ceiling: Unl
Heat Index: 47°   Visibility: 9mi
Dew Point: 28°   Wind: 12mph
Humidity: 48%   Direction: 290°WNW
Pressure: 30.26"   Gusts: NA
Location:  34.22°N, 92°W
Report Text: KPBF 270453Z AUTO 29010KT 9SM CLR 08/M02 A3026 RMK AO2 SLP245 T00831022
Loading
Personal Weather Stations






























Interactive Weather Map New forecast layout! Learn more

10-Day Weather Forecast

Advertisements
Track Severe Weather on mobile